createdAt,value
2023-02-28T00:01:33.403Z,21.40
2023-02-28T00:04:00.960Z,24.43
2023-02-28T00:06:28.366Z,18.57
2023-02-28T00:08:55.608Z,19.85
2023-02-28T00:11:23.121Z,22.60
2023-02-28T00:13:50.506Z,20.63
2023-02-28T00:16:23.283Z,20.27
2023-02-28T00:18:51.166Z,19.58
2023-02-28T00:21:20.645Z,19.77
2023-02-28T00:23:47.971Z,19.25
2023-02-28T00:26:15.127Z,17.63
2023-02-28T00:28:42.137Z,16.02
2023-02-28T00:31:09.150Z,14.90
2023-02-28T00:33:36.293Z,14.23
2023-02-28T00:36:06.804Z,15.27
2023-02-28T00:38:34.223Z,15.20
2023-02-28T00:41:05.947Z,17.33
2023-02-28T00:43:38.821Z,16.25
2023-02-28T00:46:07.059Z,18.98
2023-02-28T00:48:34.421Z,17.23
2023-02-28T00:51:01.778Z,17.10
2023-02-28T00:53:29.596Z,17.13
2023-02-28T00:55:56.836Z,16.65
2023-02-28T00:58:23.823Z,16.87
2023-02-28T01:00:52.814Z,16.88
2023-02-28T01:03:21.642Z,15.80
2023-02-28T01:05:48.706Z,15.63
2023-02-28T01:08:16.315Z,18.38
2023-02-28T01:10:43.948Z,16.77
2023-02-28T01:18:27.184Z,14.55
2023-02-28T01:20:54.223Z,12.40
2023-02-28T01:23:24.575Z,13.88
2023-02-28T01:25:53.014Z,11.60
2023-02-28T01:28:20.362Z,12.13
2023-02-28T01:30:51.813Z,12.35
2023-02-28T01:33:18.932Z,11.30
2023-02-28T01:35:46.199Z,12.05
2023-02-28T01:38:22.187Z,12.27
2023-02-28T01:40:50.568Z,11.43
2023-02-28T01:43:44.765Z,13.95
2023-02-28T01:46:13.267Z,12.18
2023-02-28T01:49:00.160Z,11.60
2023-02-28T01:51:51.547Z,11.98
2023-02-28T01:54:25.045Z,11.77
2023-02-28T01:57:16.624Z,13.93
2023-02-28T01:59:56.555Z,12.48
2023-02-28T02:02:25.460Z,13.02
2023-02-28T02:05:06.089Z,12.63
2023-02-28T02:07:41.208Z,12.50
2023-02-28T02:10:16.167Z,12.48
2023-02-28T02:12:55.077Z,14.35
2023-02-28T02:16:04.809Z,12.32
2023-02-28T02:18:40.702Z,12.50
2023-02-28T02:21:31.928Z,14.68
2023-02-28T02:24:18.796Z,14.00
2023-02-28T02:27:34.971Z,13.20
2023-02-28T02:30:48.522Z,13.48
2023-02-28T02:33:45.824Z,13.93
2023-02-28T02:36:24.726Z,12.90
2023-02-28T02:39:07.998Z,15.32
2023-02-28T02:41:52.241Z,13.75
2023-02-28T02:44:23.858Z,14.32
2023-02-28T02:46:56.645Z,13.63
2023-02-28T02:49:30.633Z,14.35
2023-02-28T02:52:04.707Z,14.27
2023-02-28T02:54:42.633Z,13.50
2023-02-28T02:57:22.560Z,13.38
2023-02-28T02:59:51.805Z,14.53
2023-02-28T03:02:21.597Z,14.25
2023-02-28T03:05:03.844Z,13.73
2023-02-28T03:07:31.223Z,13.57
2023-02-28T03:09:59.460Z,13.82
2023-02-28T03:12:42.964Z,14.68
2023-02-28T03:15:26.895Z,15.18
2023-02-28T03:18:04.870Z,15.33
2023-02-28T03:21:16.986Z,13.95
2023-02-28T03:23:53.927Z,13.23
2023-02-28T03:26:25.094Z,15.40
2023-02-28T03:29:18.445Z,14.63
2023-02-28T03:32:23.375Z,17.17
2023-02-28T03:35:01.277Z,13.63
2023-02-28T03:37:30.813Z,12.65
2023-02-28T03:40:13.764Z,12.13
2023-02-28T03:42:45.989Z,12.65
2023-02-28T03:45:28.945Z,12.45
2023-02-28T03:48:32.906Z,12.48
2023-02-28T03:51:04.896Z,12.55
2023-02-28T03:53:48.808Z,12.93
2023-02-28T03:56:30.886Z,12.07
2023-02-28T03:59:14.592Z,12.27
2023-02-28T04:01:48.470Z,12.68
2023-02-28T04:04:17.498Z,13.50
2023-02-28T04:06:45.735Z,12.57
2023-02-28T04:09:15.704Z,12.80
2023-02-28T04:11:56.622Z,12.30
2023-02-28T04:14:27.577Z,12.73
2023-02-28T04:16:55.005Z,13.23
2023-02-28T04:19:22.852Z,12.40
2023-02-28T04:21:52.799Z,12.23
2023-02-28T04:24:26.900Z,12.77
2023-02-28T04:26:57.143Z,12.60
2023-02-28T04:29:30.606Z,12.70
2023-02-28T04:32:00.569Z,13.67
2023-02-28T04:34:29.730Z,12.20
2023-02-28T04:37:12.026Z,11.02
2023-02-28T04:39:41.259Z,14.13
2023-02-28T04:42:08.372Z,12.57
2023-02-28T04:44:35.489Z,12.10
2023-02-28T04:47:02.796Z,12.05
2023-02-28T04:49:29.896Z,13.93
2023-02-28T04:51:56.991Z,13.32
2023-02-28T04:54:24.066Z,14.57
2023-02-28T04:56:51.310Z,14.27
2023-02-28T04:59:18.745Z,13.33
2023-02-28T05:01:50.494Z,13.63
2023-02-28T05:04:18.465Z,13.38
2023-02-28T05:06:45.563Z,14.23
2023-02-28T05:09:12.816Z,14.38
2023-02-28T05:11:41.014Z,16.15
2023-02-28T05:14:14.192Z,16.50
2023-02-28T05:16:41.334Z,15.27
2023-02-28T05:19:08.453Z,17.42
2023-02-28T05:21:42.042Z,16.30
2023-02-28T05:24:13.013Z,16.00
2023-02-28T05:26:43.143Z,14.30
2023-02-28T05:29:10.960Z,14.33
2023-02-28T05:31:38.600Z,14.47
2023-02-28T05:34:06.304Z,16.50
2023-02-28T05:36:33.889Z,15.80
2023-02-28T05:39:00.982Z,16.23
2023-02-28T05:41:28.727Z,14.80
2023-02-28T05:43:56.340Z,15.48
2023-02-28T05:46:23.394Z,16.15
2023-02-28T05:48:51.307Z,16.77
2023-02-28T05:51:18.934Z,17.95
2023-02-28T05:53:46.352Z,16.45
2023-02-28T05:56:13.449Z,17.08
2023-02-28T05:58:40.694Z,15.75
2023-02-28T06:01:50.704Z,16.60
2023-02-28T06:04:31.606Z,60.10
2023-02-28T06:06:59.896Z,39.03
2023-02-28T06:09:27.309Z,17.88
2023-02-28T06:11:55.295Z,19.42
2023-02-28T06:14:22.534Z,16.77
2023-02-28T06:16:49.760Z,17.80
2023-02-28T06:19:17.425Z,25.17
2023-02-28T06:21:45.080Z,15.80
2023-02-28T06:24:12.308Z,14.67
2023-02-28T06:26:39.619Z,15.50
2023-02-28T06:29:06.911Z,19.90
2023-02-28T06:31:34.256Z,16.42
2023-02-28T06:34:01.818Z,17.20
2023-02-28T06:36:28.888Z,18.77
2023-02-28T06:38:57.113Z,18.50
2023-02-28T06:41:27.671Z,17.63
2023-02-28T06:43:55.378Z,19.83
2023-02-28T06:46:22.794Z,16.65
2023-02-28T06:48:50.205Z,17.75
2023-02-28T06:51:25.287Z,17.60
2023-02-28T06:53:52.633Z,17.25
2023-02-28T06:56:21.420Z,18.25
2023-02-28T06:58:50.918Z,18.27
2023-02-28T07:01:18.898Z,17.88
2023-02-28T07:03:46.661Z,20.52
2023-02-28T07:06:13.834Z,19.10
2023-02-28T07:08:42.350Z,18.23
2023-02-28T07:11:09.603Z,17.60
2023-02-28T07:13:37.380Z,17.98
2023-02-28T07:16:09.921Z,15.95
2023-02-28T07:18:38.692Z,15.95
2023-02-28T07:21:09.054Z,19.95
2023-02-28T07:23:37.062Z,14.95
2023-02-28T07:26:04.247Z,15.25
2023-02-28T07:28:31.450Z,17.70
2023-02-28T07:30:58.667Z,14.80
2023-02-28T07:33:25.819Z,12.90
2023-02-28T07:35:52.917Z,11.52
2023-02-28T07:38:19.940Z,9.90
2023-02-28T07:40:47.266Z,12.07
2023-02-28T07:43:14.354Z,9.38
2023-02-28T07:45:41.505Z,8.32
2023-02-28T07:48:11.198Z,9.48
2023-02-28T07:50:38.681Z,8.43
2023-02-28T07:53:06.055Z,8.25
2023-02-28T07:55:33.304Z,6.95
2023-02-28T07:58:01.388Z,6.10
2023-02-28T08:00:30.092Z,6.97
2023-02-28T08:02:57.219Z,5.65
2023-02-28T08:05:24.964Z,6.30
2023-02-28T08:07:52.543Z,5.57
2023-02-28T08:10:19.690Z,4.63
2023-02-28T08:12:46.775Z,6.72
2023-02-28T08:15:13.760Z,6.13
2023-02-28T08:17:40.904Z,6.28
2023-02-28T08:20:11.456Z,6.10
2023-02-28T08:22:38.440Z,5.05
2023-02-28T08:25:08.353Z,4.30
2023-02-28T08:27:36.040Z,4.72
2023-02-28T08:30:04.177Z,5.80
2023-02-28T08:32:31.299Z,5.10
2023-02-28T08:34:58.738Z,4.20
2023-02-28T08:37:26.356Z,4.35
2023-02-28T08:39:56.278Z,5.15
2023-02-28T08:42:24.550Z,5.25
2023-02-28T08:44:51.739Z,4.03
2023-02-28T08:49:45.727Z,4.38
2023-02-28T15:52:43.328Z,4.47
2023-02-28T15:55:22.842Z,3.40
2023-02-28T15:57:59.730Z,3.47
2023-02-28T16:00:29.834Z,4.10
2023-02-28T16:02:57.289Z,3.43
2023-02-28T16:05:33.439Z,4.00
2023-02-28T16:08:12.989Z,3.77
2023-02-28T16:10:40.132Z,3.93
2023-02-28T16:13:07.846Z,2.90
2023-02-28T16:15:44.229Z,3.67
2023-02-28T16:18:14.735Z,5.93
2023-02-28T16:20:42.585Z,3.20
2023-02-28T16:23:09.707Z,3.67
2023-02-28T16:25:41.049Z,3.90
2023-02-28T16:28:26.492Z,3.60
2023-02-28T16:30:54.393Z,4.83
2023-02-28T16:33:21.515Z,4.20
2023-02-28T16:35:48.616Z,3.57
2023-02-28T16:38:15.855Z,3.67
2023-02-28T16:40:43.329Z,7.77
2023-02-28T16:43:20.380Z,3.43
2023-02-28T18:07:39.341Z,9.10
2023-02-28T18:10:20.547Z,7.60
2023-02-28T18:12:50.996Z,7.63
2023-02-28T18:15:23.542Z,8.03
2023-02-28T18:17:51.128Z,7.47
2023-02-28T18:20:19.146Z,8.97
2023-02-28T18:22:46.413Z,8.97
2023-02-28T18:25:17.026Z,9.30
2023-02-28T18:27:54.397Z,7.50
2023-02-28T18:30:22.611Z,7.83
2023-02-28T18:32:49.723Z,7.57
2023-02-28T18:35:18.012Z,9.60
2023-02-28T18:37:45.626Z,10.73
2023-02-28T18:40:15.131Z,11.73
2023-02-28T18:42:42.255Z,8.43
2023-02-28T18:45:10.102Z,11.23
2023-02-28T18:47:37.105Z,9.70
2023-02-28T18:50:06.491Z,9.43
2023-02-28T18:52:33.797Z,13.63
2023-02-28T18:55:00.878Z,14.90
2023-02-28T18:57:29.026Z,14.73
2023-02-28T18:59:56.085Z,16.63
2023-02-28T19:02:23.515Z,16.47
2023-02-28T19:04:50.761Z,19.97
2023-02-28T19:07:17.907Z,18.97
2023-02-28T19:09:45.193Z,17.90
2023-02-28T19:12:12.359Z,19.03
2023-02-28T19:14:39.381Z,19.27
2023-02-28T19:17:06.388Z,24.03
2023-02-28T19:19:33.477Z,36.67
2023-02-28T19:22:00.542Z,33.40
2023-02-28T19:24:27.781Z,42.77
2023-02-28T19:26:54.910Z,39.57
2023-02-28T19:29:22.072Z,50.20
2023-02-28T19:31:49.616Z,37.47
